createdAt,value
2022-07-28T00:01:13.696Z,88.00
2022-07-28T00:03:40.686Z,88.30
2022-07-28T00:06:07.455Z,88.30
2022-07-28T00:08:34.236Z,88.70
2022-07-28T00:11:00.965Z,88.90
2022-07-28T00:13:27.861Z,89.10
2022-07-28T00:15:54.690Z,89.50
2022-07-28T00:18:21.536Z,89.70
2022-07-28T00:20:48.406Z,90.00
2022-07-28T00:23:15.225Z,90.20
2022-07-28T00:25:42.031Z,90.40
2022-07-28T00:28:08.868Z,90.50
2022-07-28T00:30:36.260Z,90.60
2022-07-28T00:33:03.300Z,90.80
2022-07-28T00:35:31.819Z,90.80
2022-07-28T00:38:00.068Z,91.00
2022-07-28T00:40:46.945Z,91.10
2022-07-28T00:43:15.221Z,91.20
2022-07-28T00:45:42.352Z,91.30
2022-07-28T00:48:09.405Z,91.50
2022-07-28T00:50:39.173Z,91.60
2022-07-28T00:53:06.852Z,91.70
2022-07-28T00:56:03.050Z,91.90
2022-07-28T00:58:22.776Z,92.10
2022-07-28T01:00:49.602Z,92.30
2022-07-28T01:03:16.513Z,92.80
2022-07-28T01:05:57.940Z,92.80
2022-07-28T01:08:29.929Z,93.00
2022-07-28T01:11:14.313Z,93.10
2022-07-28T01:13:56.385Z,93.30
2022-07-28T01:16:23.738Z,93.60
2022-07-28T01:19:17.752Z,93.90
2022-07-28T01:21:47.366Z,94.20
2022-07-28T01:24:27.658Z,94.50
2022-07-28T01:27:04.091Z,95.10
2022-07-28T01:29:54.033Z,95.10
2022-07-28T01:32:25.772Z,95.40
2022-07-28T01:35:11.565Z,95.70
2022-07-28T01:37:45.859Z,96.00
2022-07-28T01:40:17.549Z,96.20
2022-07-28T01:42:48.713Z,96.50
2022-07-28T01:45:16.728Z,96.80
2022-07-28T01:47:45.405Z,97.20
2022-07-28T01:50:14.740Z,97.40
2022-07-28T01:52:43.524Z,97.70
2022-07-28T01:55:12.221Z,98.00
2022-07-28T01:57:40.637Z,98.30
2022-07-28T02:00:13.513Z,98.50
2022-07-28T02:02:44.124Z,98.70
2022-07-28T02:05:15.028Z,98.80
2022-07-28T02:07:44.442Z,98.90
2022-07-28T02:10:16.886Z,99.10
2022-07-28T02:16:32.182Z,99.40
2022-07-28T02:19:00.675Z,99.50
2022-07-28T02:21:31.116Z,99.80
2022-07-28T02:23:59.781Z,99.90
2022-07-28T02:26:30.882Z,99.90
2022-07-28T02:29:01.432Z,99.90
2022-07-28T02:31:40.565Z,99.90
2022-07-28T02:34:12.846Z,99.90
2022-07-28T02:36:48.432Z,99.90
2022-07-28T02:39:22.453Z,99.90
2022-07-28T02:41:58.075Z,99.90
2022-07-28T02:44:30.628Z,99.90
2022-07-28T02:46:59.450Z,99.90
2022-07-28T02:49:32.522Z,99.90
2022-07-28T02:52:01.828Z,99.90
2022-07-28T02:54:30.762Z,99.90
2022-07-28T02:57:00.009Z,99.90
2022-07-28T02:59:28.550Z,99.90
2022-07-28T03:01:56.461Z,99.90
2022-07-28T03:04:43.749Z,99.90
2022-07-28T03:07:11.243Z,99.90
2022-07-28T03:09:43.738Z,99.90
2022-07-28T03:12:11.360Z,99.90
2022-07-28T03:14:38.362Z,99.90
2022-07-28T03:17:06.133Z,99.90
2022-07-28T03:19:33.586Z,99.90
2022-07-28T03:22:00.610Z,99.90
2022-07-28T03:24:30.801Z,99.90
2022-07-28T03:27:10.023Z,99.90
2022-07-28T03:29:38.841Z,99.90
2022-07-28T03:32:06.377Z,99.90
2022-07-28T03:34:33.425Z,99.90
2022-07-28T03:37:16.478Z,99.90
2022-07-28T03:39:51.527Z,99.90
2022-07-28T03:42:19.618Z,99.90
2022-07-28T03:44:47.995Z,99.90
2022-07-28T03:47:15.415Z,99.90
2022-07-28T03:49:45.901Z,99.90
2022-07-28T03:52:12.710Z,99.90
2022-07-28T03:54:39.491Z,99.90
2022-07-28T03:57:06.434Z,99.90
2022-07-28T03:59:33.191Z,99.90
2022-07-28T04:02:00.067Z,99.90
2022-07-28T04:04:27.045Z,99.90
2022-07-28T04:06:53.922Z,99.90
2022-07-28T04:09:20.772Z,99.90
2022-07-28T04:11:47.649Z,99.90
2022-07-28T04:14:16.822Z,99.90
2022-07-28T04:16:44.421Z,99.90
2022-07-28T04:19:11.744Z,99.90
2022-07-28T04:21:38.595Z,99.90
2022-07-28T04:24:05.852Z,99.90
2022-07-28T04:26:32.692Z,99.90
2022-07-28T04:28:59.450Z,99.90
2022-07-28T04:31:30.503Z,99.90
2022-07-28T04:33:57.454Z,99.90
2022-07-28T04:36:24.237Z,99.90
2022-07-28T04:38:51.055Z,99.90
2022-07-28T04:41:17.856Z,99.90
2022-07-28T04:43:45.411Z,99.90
2022-07-28T04:46:15.142Z,99.90
2022-07-28T04:48:42.468Z,99.90
2022-07-28T04:51:09.977Z,99.90
2022-07-28T04:53:36.773Z,99.90
2022-07-28T04:56:03.719Z,99.90
2022-07-28T04:58:31.120Z,99.90
2022-07-28T05:00:58.039Z,99.90
2022-07-28T05:03:24.862Z,99.90
2022-07-28T05:05:54.272Z,99.90
2022-07-28T05:08:22.220Z,99.60
2022-07-28T05:10:52.673Z,99.50
2022-07-28T05:13:19.397Z,99.30
2022-07-28T05:15:46.213Z,99.20
2022-07-28T05:18:12.955Z,99.20
2022-07-28T05:20:39.700Z,98.90
2022-07-28T05:23:06.445Z,98.80
2022-07-28T05:25:33.310Z,98.90
2022-07-28T05:28:00.053Z,98.90
2022-07-28T05:30:26.920Z,98.80
2022-07-28T05:32:54.050Z,98.80
2022-07-28T05:35:23.292Z,99.00
2022-07-28T05:37:50.063Z,99.00
2022-07-28T05:40:18.362Z,99.00
2022-07-28T05:42:47.758Z,99.00
2022-07-28T05:45:16.866Z,98.70
2022-07-28T05:47:52.403Z,98.70
2022-07-28T05:50:21.325Z,98.60
2022-07-28T05:52:49.038Z,98.50
2022-07-28T05:55:16.607Z,98.30
2022-07-28T05:57:43.554Z,98.20
2022-07-28T06:00:16.202Z,98.10
2022-07-28T06:02:45.742Z,97.90
2022-07-28T06:05:13.478Z,97.70
2022-07-28T06:07:43.340Z,97.40
2022-07-28T06:10:13.596Z,97.20
2022-07-28T06:12:41.930Z,96.70
2022-07-28T06:15:14.676Z,95.60
2022-07-28T06:17:41.917Z,94.60
2022-07-28T06:20:09.825Z,93.10
2022-07-28T06:22:48.708Z,91.60
2022-07-28T06:25:18.341Z,90.30
2022-07-28T06:27:46.086Z,89.20
2022-07-28T06:30:13.770Z,87.60
2022-07-28T06:32:40.672Z,85.30
2022-07-28T06:35:08.396Z,82.10
2022-07-28T06:37:35.393Z,78.10
2022-07-28T06:40:03.241Z,76.60
2022-07-28T06:42:29.988Z,76.10
2022-07-28T06:44:59.477Z,74.80
2022-07-28T06:47:27.142Z,72.80
2022-07-28T06:49:53.946Z,71.20
2022-07-28T06:52:21.991Z,69.30
2022-07-28T06:54:52.971Z,68.30
2022-07-28T06:57:28.074Z,68.10
2022-07-28T07:00:03.288Z,67.60
2022-07-28T07:02:30.108Z,66.90
2022-07-28T07:04:56.834Z,65.80
2022-07-28T07:07:23.742Z,64.10
2022-07-28T07:09:51.458Z,62.30
2022-07-28T07:12:18.189Z,62.20
2022-07-28T07:14:44.934Z,61.70
2022-07-28T07:17:11.719Z,61.80
2022-07-28T07:19:38.922Z,60.20
2022-07-28T07:22:05.655Z,59.60
2022-07-28T07:24:32.917Z,58.40
2022-07-28T07:27:00.020Z,57.50
2022-07-28T07:29:30.615Z,56.60
2022-07-28T07:31:58.643Z,56.40
2022-07-28T07:34:25.556Z,55.50
2022-07-28T07:36:52.384Z,54.80
2022-07-28T07:39:19.169Z,53.80
2022-07-28T07:41:45.935Z,53.20
2022-07-28T07:44:12.891Z,53.60
2022-07-28T07:46:40.022Z,53.80
2022-07-28T07:49:06.887Z,53.70
2022-07-28T07:51:34.561Z,52.50
2022-07-28T07:54:01.299Z,52.80
2022-07-28T07:56:28.050Z,52.80
2022-07-28T07:58:57.067Z,52.50
2022-07-28T08:01:24.216Z,52.00
2022-07-28T08:03:51.454Z,50.70
2022-07-28T08:06:26.578Z,50.50
2022-07-28T08:08:55.094Z,50.20
2022-07-28T08:11:22.013Z,50.60
2022-07-28T08:13:49.549Z,50.10
2022-07-28T08:16:16.551Z,49.80
2022-07-28T08:18:44.797Z,48.40
2022-07-28T08:21:13.008Z,48.60
2022-07-28T08:23:39.840Z,49.10
2022-07-28T08:26:06.805Z,50.30
2022-07-28T08:28:33.565Z,49.40
2022-07-28T08:31:00.435Z,48.90
2022-07-28T08:33:27.262Z,47.80
2022-07-28T08:35:54.005Z,46.90
2022-07-28T08:38:20.798Z,47.20
2022-07-28T08:40:49.887Z,48.20
2022-07-28T08:43:29.094Z,48.10
2022-07-28T08:45:58.753Z,48.00
2022-07-28T08:48:30.231Z,48.60
2022-07-28T08:51:03.885Z,48.60
2022-07-28T08:53:31.700Z,48.60
2022-07-28T08:56:04.922Z,48.10
2022-07-28T08:58:32.863Z,47.10
2022-07-28T09:01:00.251Z,46.50
2022-07-28T09:03:28.536Z,46.60
2022-07-28T09:05:58.396Z,46.10
2022-07-28T09:08:25.436Z,45.60
2022-07-28T09:10:53.292Z,44.50
2022-07-28T09:13:20.518Z,44.70
2022-07-28T09:15:47.629Z,45.00
2022-07-28T09:18:18.437Z,45.40
2022-07-28T09:20:45.650Z,43.80
2022-07-28T09:23:42.158Z,44.10
2022-07-28T09:26:12.045Z,44.40
2022-07-28T09:28:51.088Z,44.00
2022-07-28T09:31:19.532Z,44.00
2022-07-28T09:34:01.022Z,43.90
2022-07-28T09:36:39.126Z,43.50
2022-07-28T09:39:06.468Z,43.50
2022-07-28T09:41:48.343Z,44.20
2022-07-28T09:44:19.885Z,43.90
2022-07-28T09:46:46.937Z,43.80
2022-07-28T09:49:15.054Z,43.80
2022-07-28T09:51:42.346Z,43.90
2022-07-28T09:54:14.603Z,44.00
2022-07-28T09:56:44.188Z,43.40
2022-07-28T09:59:14.655Z,42.80
2022-07-28T10:01:55.691Z,42.50
2022-07-28T10:04:38.368Z,42.60
2022-07-28T10:07:07.729Z,42.30
2022-07-28T10:09:34.732Z,42.60
2022-07-28T10:12:22.275Z,42.10
2022-07-28T10:14:54.816Z,42.00
2022-07-28T10:17:30.647Z,42.10
2022-07-28T10:20:04.047Z,42.10
2022-07-28T10:22:33.790Z,42.10
2022-07-28T10:25:09.648Z,42.20
2022-07-28T10:27:40.356Z,42.00
2022-07-28T10:30:07.834Z,41.90
2022-07-28T10:32:42.583Z,41.30
2022-07-28T10:35:14.516Z,40.50
2022-07-28T10:37:54.438Z,40.20
2022-07-28T10:40:27.141Z,40.90
2022-07-28T10:42:55.021Z,40.60
2022-07-28T10:45:22.325Z,40.40
2022-07-28T10:47:50.124Z,40.80
2022-07-28T10:50:18.174Z,41.00
2022-07-28T10:52:49.842Z,40.00
2022-07-28T10:55:38.520Z,40.70
2022-07-28T10:58:24.972Z,40.90
2022-07-28T11:00:57.288Z,40.40
2022-07-28T11:03:44.478Z,40.00
2022-07-28T11:06:28.189Z,39.90
2022-07-28T11:08:57.368Z,39.80
2022-07-28T11:11:46.784Z,39.60
2022-07-28T11:14:25.948Z,38.90
2022-07-28T11:17:10.686Z,39.00
2022-07-28T11:19:55.839Z,39.30
2022-07-28T11:22:33.438Z,39.90
2022-07-28T11:25:20.364Z,39.70
2022-07-28T11:27:51.690Z,39.30
2022-07-28T11:30:18.852Z,39.50
2022-07-28T11:32:53.726Z,39.20
2022-07-28T11:35:25.149Z,39.30
2022-07-28T11:38:01.617Z,39.60
2022-07-28T11:40:45.685Z,39.70
2022-07-28T11:43:36.302Z,39.10
2022-07-28T11:46:07.784Z,39.30
2022-07-28T11:48:39.347Z,38.70
2022-07-28T11:51:06.330Z,39.40
2022-07-28T11:53:50.130Z,39.50
2022-07-28T11:56:22.585Z,39.90
2022-07-28T11:58:57.400Z,40.60
2022-07-28T12:01:24.159Z,41.20
2022-07-28T12:03:55.343Z,40.60
2022-07-28T12:06:28.907Z,40.30
2022-07-28T12:09:06.147Z,41.00
2022-07-28T12:11:35.107Z,41.30
2022-07-28T12:14:09.409Z,41.20
2022-07-28T12:16:38.515Z,41.10
2022-07-28T12:19:08.296Z,41.10
2022-07-28T12:21:46.517Z,41.20
2022-07-28T12:24:20.559Z,40.70
2022-07-28T12:26:49.949Z,40.30
2022-07-28T12:29:17.638Z,40.10
2022-07-28T12:31:55.746Z,40.00
2022-07-28T12:34:26.755Z,39.50
2022-07-28T12:36:58.701Z,39.90
2022-07-28T12:39:26.302Z,39.80
2022-07-28T12:42:07.375Z,39.60
2022-07-28T12:44:42.298Z,39.40
2022-07-28T12:47:12.162Z,39.70
2022-07-28T12:49:42.555Z,39.90
2022-07-28T12:52:21.509Z,40.20
2022-07-28T12:54:55.471Z,40.00
2022-07-28T12:57:48.855Z,39.90
2022-07-28T13:00:19.641Z,39.60
2022-07-28T13:02:47.671Z,39.80
2022-07-28T13:05:31.816Z,39.60
2022-07-28T13:08:03.811Z,39.00
2022-07-28T13:10:32.218Z,38.10
2022-07-28T13:13:17.618Z,38.40
2022-07-28T13:15:44.760Z,37.60
2022-07-28T13:18:12.483Z,38.20
2022-07-28T13:20:54.921Z,38.40
2022-07-28T13:23:22.050Z,39.10
2022-07-28T13:25:48.767Z,39.10
2022-07-28T13:28:24.086Z,39.10
2022-07-28T13:30:50.882Z,39.20
2022-07-28T13:33:18.191Z,39.10
2022-07-28T13:35:45.341Z,38.80
2022-07-28T13:38:12.133Z,39.20
2022-07-28T13:40:38.952Z,38.90
2022-07-28T13:43:11.353Z,39.00
2022-07-28T13:45:38.759Z,38.70
2022-07-28T13:48:07.802Z,39.10
2022-07-28T13:50:34.645Z,39.10
2022-07-28T13:53:01.482Z,39.60
2022-07-28T13:55:28.428Z,39.90
2022-07-28T13:57:55.228Z,40.70
2022-07-28T14:00:23.929Z,41.30
2022-07-28T14:02:51.504Z,41.50
2022-07-28T14:05:18.718Z,41.70
2022-07-28T14:07:48.794Z,42.00
2022-07-28T14:10:17.744Z,42.40
2022-07-28T14:12:45.085Z,42.40
2022-07-28T14:15:13.795Z,42.60
2022-07-28T14:17:43.867Z,42.60
2022-07-28T14:20:14.196Z,42.60
2022-07-28T14:22:41.742Z,42.70
2022-07-28T14:25:09.657Z,42.80
2022-07-28T14:27:36.459Z,42.70
2022-07-28T14:30:04.552Z,43.00
2022-07-28T14:32:32.746Z,43.30
2022-07-28T14:34:59.818Z,43.40
2022-07-28T14:37:31.437Z,44.10
2022-07-28T14:40:08.572Z,44.10
2022-07-28T14:42:35.409Z,43.90
2022-07-28T14:45:05.744Z,43.70
2022-07-28T14:47:44.938Z,43.80
2022-07-28T14:50:12.783Z,43.90
2022-07-28T14:52:39.742Z,44.00
2022-07-28T14:55:06.900Z,44.10
2022-07-28T14:57:51.866Z,44.10
2022-07-28T15:00:22.301Z,44.20
2022-07-28T15:02:51.459Z,44.30
2022-07-28T15:05:19.158Z,44.10
2022-07-28T15:07:49.031Z,44.30
2022-07-28T15:10:16.134Z,44.70
2022-07-28T15:12:43.024Z,45.10
2022-07-28T15:15:10.523Z,45.30
2022-07-28T15:17:37.655Z,45.00
2022-07-28T15:20:06.662Z,45.10
2022-07-28T15:22:34.119Z,45.40
2022-07-28T15:25:00.963Z,45.30
2022-07-28T15:27:33.021Z,45.30
2022-07-28T15:30:02.950Z,45.50
2022-07-28T15:32:31.315Z,45.50
2022-07-28T15:34:59.164Z,45.10
2022-07-28T15:37:27.531Z,45.20
2022-07-28T15:39:54.481Z,45.30
2022-07-28T15:42:21.324Z,45.20
2022-07-28T15:44:49.296Z,45.10
2022-07-28T15:47:16.619Z,45.20
2022-07-28T15:49:43.531Z,45.40
2022-07-28T15:52:10.556Z,45.30
2022-07-28T15:54:37.356Z,45.40
2022-07-28T15:57:04.258Z,45.10
2022-07-28T15:59:50.136Z,45.10
2022-07-28T16:02:18.478Z,45.10
2022-07-28T16:04:53.697Z,45.50
2022-07-28T16:07:24.433Z,45.70
2022-07-28T16:09:53.901Z,46.00
2022-07-28T16:12:22.771Z,46.40
2022-07-28T16:14:49.849Z,46.30
2022-07-28T16:17:18.287Z,46.30
2022-07-28T16:19:49.630Z,46.50
2022-07-28T16:22:19.050Z,46.60
2022-07-28T16:24:46.543Z,46.60
2022-07-28T16:27:13.886Z,47.10
2022-07-28T16:29:40.790Z,47.20
2022-07-28T16:32:07.633Z,47.10
2022-07-28T16:34:34.475Z,46.90
2022-07-28T16:37:01.656Z,46.90
2022-07-28T16:39:34.374Z,47.30
2022-07-28T16:42:01.806Z,47.20
2022-07-28T16:44:29.270Z,47.40
2022-07-28T16:46:56.361Z,47.30
2022-07-28T16:49:24.473Z,47.30
2022-07-28T16:51:51.449Z,47.10
2022-07-28T16:54:18.777Z,47.40
2022-07-28T16:56:45.928Z,47.40
2022-07-28T16:59:13.099Z,47.30
2022-07-28T17:01:45.625Z,47.20
2022-07-28T17:04:14.864Z,47.60
2022-07-28T17:06:42.119Z,47.80
2022-07-28T17:09:09.370Z,47.60
2022-07-28T17:11:36.190Z,47.20
2022-07-28T17:14:04.421Z,47.30
2022-07-28T17:16:31.424Z,47.70
2022-07-28T17:18:58.278Z,47.80
2022-07-28T17:21:25.725Z,48.10
2022-07-28T17:23:53.111Z,48.20
2022-07-28T17:29:06.972Z,48.40
2022-07-28T17:31:34.004Z,48.60
2022-07-28T17:34:01.149Z,48.70
2022-07-28T17:36:27.921Z,49.00
2022-07-28T17:38:54.641Z,49.30
2022-07-28T17:41:21.822Z,49.30
2022-07-28T17:43:48.596Z,49.50
2022-07-28T17:46:15.474Z,49.90
2022-07-28T17:48:42.335Z,50.10
2022-07-28T17:51:09.206Z,50.20
2022-07-28T17:53:39.267Z,50.40
2022-07-28T17:56:06.952Z,50.50
2022-07-28T17:58:36.059Z,50.60
2022-07-28T18:01:12.102Z,50.80
2022-07-28T18:03:59.468Z,51.00
2022-07-28T18:06:29.669Z,51.20
2022-07-28T18:08:56.678Z,51.50
2022-07-28T18:11:23.476Z,51.60
2022-07-28T18:14:03.634Z,51.80
2022-07-28T18:16:34.251Z,52.00
2022-07-28T18:19:02.313Z,52.10
2022-07-28T18:21:29.305Z,52.20
2022-07-28T18:23:56.106Z,52.30
2022-07-28T18:26:23.057Z,52.40
2022-07-28T18:28:49.961Z,52.50
2022-07-28T18:31:17.073Z,52.80
2022-07-28T18:33:44.080Z,52.90
2022-07-28T18:36:10.825Z,53.30
2022-07-28T18:38:37.545Z,53.50
2022-07-28T18:41:04.328Z,53.80
2022-07-28T18:43:31.165Z,54.10
2022-07-28T18:45:57.973Z,54.30
2022-07-28T18:48:25.655Z,54.60
2022-07-28T18:50:52.741Z,54.80
2022-07-28T18:53:19.480Z,55.00
2022-07-28T18:55:46.629Z,55.30
2022-07-28T18:58:13.384Z,55.50
2022-07-28T19:00:40.156Z,55.80
2022-07-28T19:03:07.082Z,56.00
2022-07-28T19:05:37.127Z,56.30
2022-07-28T19:08:05.350Z,56.60
2022-07-28T19:10:32.478Z,56.80
2022-07-28T19:12:59.634Z,57.10
2022-07-28T19:15:26.563Z,57.20
2022-07-28T19:18:09.989Z,57.50
2022-07-28T19:20:43.871Z,57.70
2022-07-28T19:23:10.781Z,57.90
2022-07-28T19:25:39.536Z,58.20
2022-07-28T19:28:06.611Z,58.30
2022-07-28T19:30:34.154Z,58.50
2022-07-28T19:33:01.004Z,58.70
2022-07-28T19:35:27.827Z,58.90
2022-07-28T19:37:56.685Z,59.00
2022-07-28T19:40:25.543Z,59.20
2022-07-28T19:42:53.423Z,59.50
2022-07-28T19:45:20.278Z,60.40
2022-07-28T19:47:47.097Z,61.00
2022-07-28T19:50:17.051Z,62.10
2022-07-28T19:52:43.846Z,62.30
2022-07-28T19:55:10.603Z,62.90
2022-07-28T19:57:42.139Z,62.60
2022-07-28T20:00:10.270Z,62.90
2022-07-28T20:02:39.722Z,63.20
2022-07-28T20:05:07.372Z,63.40
2022-07-28T20:07:34.234Z,63.70
2022-07-28T20:10:01.245Z,64.20
2022-07-28T20:12:32.763Z,64.30
2022-07-28T20:15:03.451Z,64.30
2022-07-28T20:17:38.512Z,64.30
2022-07-28T20:20:13.470Z,64.20
2022-07-28T20:22:41.657Z,64.60
2022-07-28T20:25:10.167Z,64.50
2022-07-28T20:27:41.583Z,64.70
2022-07-28T20:30:10.287Z,64.50
2022-07-28T20:32:37.729Z,64.60
2022-07-28T20:35:06.424Z,64.70
2022-07-28T20:37:36.735Z,65.00
2022-07-28T20:40:06.563Z,65.10
2022-07-28T20:42:33.541Z,65.20
2022-07-28T20:45:00.520Z,65.20
2022-07-28T20:47:28.149Z,65.50
2022-07-28T20:49:55.362Z,65.50
2022-07-28T20:52:24.718Z,65.60
2022-07-28T20:54:54.577Z,66.00
2022-07-28T20:57:22.582Z,66.40
2022-07-28T20:59:51.316Z,66.30
2022-07-28T21:02:22.858Z,66.40
2022-07-28T21:04:50.687Z,66.50
2022-07-28T21:08:00.048Z,66.70
2022-07-28T21:10:08.624Z,67.00
2022-07-28T21:12:37.137Z,67.20
2022-07-28T21:15:05.129Z,67.20
2022-07-28T21:17:32.070Z,67.40
2022-07-28T21:19:59.061Z,67.40
2022-07-28T21:22:25.848Z,67.40
2022-07-28T21:24:55.404Z,68.20
2022-07-28T21:27:23.993Z,67.80
2022-07-28T21:32:18.441Z,67.70
2022-07-28T21:34:45.256Z,67.80
2022-07-28T21:37:13.058Z,67.90
2022-07-28T21:39:40.262Z,67.90
2022-07-28T21:42:08.884Z,68.00
2022-07-28T21:44:36.986Z,68.00
2022-07-28T21:47:04.296Z,68.30
2022-07-28T21:49:32.719Z,68.30
2022-07-28T21:51:59.808Z,68.50
2022-07-28T21:54:27.034Z,68.60
2022-07-28T21:56:53.809Z,68.70
2022-07-28T21:59:20.572Z,68.90
2022-07-28T22:01:47.656Z,68.90
2022-07-28T22:04:14.825Z,69.10
2022-07-28T22:06:46.633Z,70.00
2022-07-28T22:09:14.695Z,69.60
2022-07-28T22:11:41.771Z,69.70
2022-07-28T22:14:08.679Z,69.70
2022-07-28T22:16:35.499Z,69.90
2022-07-28T22:19:02.388Z,70.00
2022-07-28T22:21:29.148Z,70.20
2022-07-28T22:23:56.054Z,70.40
2022-07-28T22:26:22.960Z,70.50
2022-07-28T22:28:49.860Z,70.60
2022-07-28T22:31:17.062Z,70.70
2022-07-28T22:33:44.033Z,70.80
2022-07-28T22:36:10.797Z,70.90
2022-07-28T22:38:37.581Z,71.00
2022-07-28T22:41:04.394Z,71.20
2022-07-28T22:43:33.399Z,71.30
2022-07-28T22:46:00.340Z,71.50
2022-07-28T22:48:27.255Z,71.60
2022-07-28T22:50:53.972Z,71.60
2022-07-28T22:53:20.759Z,71.70
2022-07-28T22:55:47.577Z,71.90
2022-07-28T22:58:14.541Z,71.80
2022-07-28T23:00:41.343Z,71.90
2022-07-28T23:03:08.603Z,72.00
2022-07-28T23:05:40.366Z,72.10
2022-07-28T23:08:07.261Z,72.10
2022-07-28T23:10:34.658Z,72.30
2022-07-28T23:13:01.885Z,72.30
2022-07-28T23:15:39.352Z,72.30
2022-07-28T23:18:10.245Z,72.40
2022-07-28T23:20:38.380Z,72.50
2022-07-28T23:23:05.137Z,72.60
2022-07-28T23:25:32.006Z,72.80
2022-07-28T23:27:58.898Z,72.80
2022-07-28T23:30:25.622Z,72.70
2022-07-28T23:32:53.058Z,72.90
2022-07-28T23:35:19.916Z,73.10
2022-07-28T23:37:46.779Z,73.40
2022-07-28T23:40:14.180Z,73.20
2022-07-28T23:42:41.604Z,73.10
2022-07-28T23:45:09.115Z,73.30
2022-07-28T23:47:35.979Z,73.40
2022-07-28T23:50:04.635Z,73.50
2022-07-28T23:52:31.468Z,73.60
2022-07-28T23:54:58.432Z,73.80
2022-07-28T23:57:25.182Z,73.90
2022-07-28T23:59:58.757Z,73.90
